sensor_id;sensor_type;location;lat;lon;timestamp;pressure;altitude;pressure_sealevel;temperature;humidity
33404;BME280;19751;40.274;18.268;2024-01-15T00:01:44;100713.66;;;10.27;100.00
33404;BME280;19751;40.274;18.268;2024-01-15T00:04:10;100722.56;;;10.27;100.00
33404;BME280;19751;40.274;18.268;2024-01-15T00:06:36;100722.56;;;10.27;100.00
33404;BME280;19751;40.274;18.268;2024-01-15T00:09:02;100719.88;;;10.27;100.00
33404;BME280;19751;40.274;18.268;2024-01-15T00:11:27;100726.09;;;10.28;100.00
33404;BME280;19751;40.274;18.268;2024-01-15T00:13:53;100724.22;;;10.28;100.00
33404;BME280;19751;40.274;18.268;2024-01-15T00:16:18;100727.78;;;10.29;100.00
33404;BME280;19751;40.274;18.268;2024-01-15T00:18:44;100728.63;;;10.29;100.00
33404;BME280;19751;40.274;18.268;2024-01-15T00:21:09;100729.63;;;10.28;100.00
33404;BME280;19751;40.274;18.268;2024-01-15T00:23:35;100740.00;;;10.31;100.00
33404;BME280;19751;40.274;18.268;2024-01-15T00:26:00;100730.91;;;10.32;100.00
33404;BME280;19751;40.274;18.268;2024-01-15T00:28:26;100727.22;;;10.33;100.00
33404;BME280;19751;40.274;18.268;2024-01-15T00:30:51;100715.41;;;10.34;100.00
33404;BME280;19751;40.274;18.268;2024-01-15T00:33:17;100703.63;;;10.35;100.00
33404;BME280;19751;40.274;18.268;2024-01-15T00:35:42;100688.50;;;10.34;100.00
33404;BME280;19751;40.274;18.268;2024-01-15T00:38:08;100684.97;;;10.34;100.00
33404;BME280;19751;40.274;18.268;2024-01-15T00:40:33;100686.63;;;10.35;100.00
33404;BME280;19751;40.274;18.268;2024-01-15T00:42:59;100681.63;;;10.32;100.00
33404;BME280;19751;40.274;18.268;2024-01-15T00:45:24;100683.31;;;10.33;100.00
33404;BME280;19751;40.274;18.268;2024-01-15T00:47:50;100677.94;;;10.33;100.00
33404;BME280;19751;40.274;18.268;2024-01-15T00:50:15;100678.09;;;10.31;100.00
33404;BME280;19751;40.274;18.268;2024-01-15T00:52:42;100677.06;;;10.32;100.00
33404;BME280;19751;40.274;18.268;2024-01-15T00:55:08;100677.53;;;10.36;100.00
33404;BME280;19751;40.274;18.268;2024-01-15T00:57:33;100687.28;;;10.37;100.00
33404;BME280;19751;40.274;18.268;2024-01-15T00:59:59;100685.22;;;10.39;100.00
33404;BME280;19751;40.274;18.268;2024-01-15T01:02:24;100681.72;;;10.38;100.00
33404;BME280;19751;40.274;18.268;2024-01-15T01:04:50;100683.19;;;10.41;100.00
33404;BME280;19751;40.274;18.268;2024-01-15T01:07:15;100681.34;;;10.41;100.00
33404;BME280;19751;40.274;18.268;2024-01-15T01:09:41;100672.84;;;10.44;100.00
33404;BME280;19751;40.274;18.268;2024-01-15T01:12:06;100663.78;;;10.45;100.00
33404;BME280;19751;40.274;18.268;2024-01-15T01:14:32;100666.06;;;10.49;100.00
33404;BME280;19751;40.274;18.268;2024-01-15T01:16:57;100661.50;;;10.49;100.00
33404;BME280;19751;40.274;18.268;2024-01-15T01:19:23;100667.75;;;10.50;100.00
33404;BME280;19751;40.274;18.268;2024-01-15T01:21:50;100654.47;;;10.48;100.00
33404;BME280;19751;40.274;18.268;2024-01-15T01:24:16;100651.59;;;10.50;100.00
33404;BME280;19751;40.274;18.268;2024-01-15T01:26:42;100645.56;;;10.48;100.00
33404;BME280;19751;40.274;18.268;2024-01-15T01:29:07;100634.97;;;10.46;100.00
33404;BME280;19751;40.274;18.268;2024-01-15T01:31:33;100633.94;;;10.47;100.00
33404;BME280;19751;40.274;18.268;2024-01-15T01:33:58;100625.88;;;10.47;100.00
33404;BME280;19751;40.274;18.268;2024-01-15T01:36:24;100625.50;;;10.50;100.00
33404;BME280;19751;40.274;18.268;2024-01-15T01:38:49;100619.91;;;10.52;100.00
33404;BME280;19751;40.274;18.268;2024-01-15T01:41:15;100604.59;;;10.52;100.00
33404;BME280;19751;40.274;18.268;2024-01-15T01:43:40;100607.09;;;10.54;100.00
33404;BME280;19751;40.274;18.268;2024-01-15T01:46:06;100606.06;;;10.55;100.00
33404;BME280;19751;40.274;18.268;2024-01-15T01:48:32;100598.63;;;10.57;100.00
33404;BME280;19751;40.274;18.268;2024-01-15T01:50:59;100597.41;;;10.59;100.00
33404;BME280;19751;40.274;18.268;2024-01-15T01:53:26;100590.16;;;10.60;100.00
33404;BME280;19751;40.274;18.268;2024-01-15T01:55:53;100589.94;;;10.61;100.00
33404;BME280;19751;40.274;18.268;2024-01-15T01:58:20;100585.44;;;10.62;100.00
33404;BME280;19751;40.274;18.268;2024-01-15T02:00:46;100582.31;;;10.65;100.00
33404;BME280;19751;40.274;18.268;2024-01-15T02:03:12;100581.94;;;10.68;100.00
33404;BME280;19751;40.274;18.268;2024-01-15T02:05:39;100576.34;;;10.69;100.00
33404;BME280;19751;40.274;18.268;2024-01-15T02:08:05;100571.41;;;10.73;100.00
33404;BME280;19751;40.274;18.268;2024-01-15T02:10:30;100561.91;;;10.77;100.00
33404;BME280;19751;40.274;18.268;2024-01-15T02:12:56;100566.25;;;10.78;100.00
33404;BME280;19751;40.274;18.268;2024-01-15T02:15:21;100554.47;;;10.79;100.00
33404;BME280;19751;40.274;18.268;2024-01-15T02:18:00;100558.00;;;10.80;100.00
33404;BME280;19751;40.274;18.268;2024-01-15T02:20:26;100553.44;;;10.80;100.00
33404;BME280;19751;40.274;18.268;2024-01-15T02:22:51;100552.41;;;10.81;100.00
33404;BME280;19751;40.274;18.268;2024-01-15T02:25:18;100551.38;;;10.82;100.00
33404;BME280;19751;40.274;18.268;2024-01-15T02:27:44;100552.84;;;10.85;100.00
33404;BME280;19751;40.274;18.268;2024-01-15T02:30:13;100548.28;;;10.85;100.00
33404;BME280;19751;40.274;18.268;2024-01-15T02:32:39;100545.59;;;10.85;100.00
33404;BME280;19751;40.274;18.268;2024-01-15T02:35:04;100538.19;;;10.87;100.00
33404;BME280;19751;40.274;18.268;2024-01-15T02:37:30;100541.50;;;10.89;100.00
33404;BME280;19751;40.274;18.268;2024-01-15T02:39:56;100544.00;;;10.91;100.00
33404;BME280;19751;40.274;18.268;2024-01-15T02:42:21;100538.63;;;10.91;100.00
33404;BME280;19751;40.274;18.268;2024-01-15T02:44:47;100537.13;;;10.88;100.00
33404;BME280;19751;40.274;18.268;2024-01-15T02:47:14;100538.19;;;10.87;100.00
33404;BME280;19751;40.274;18.268;2024-01-15T02:49:39;100535.47;;;10.87;100.00
33404;BME280;19751;40.274;18.268;2024-01-15T02:52:05;100526.97;;;10.90;100.00
33404;BME280;19751;40.274;18.268;2024-01-15T02:54:30;100524.50;;;10.89;100.00
33404;BME280;19751;40.274;18.268;2024-01-15T02:56:56;100522.63;;;10.89;100.00
33404;BME280;19751;40.274;18.268;2024-01-15T02:59:21;100515.56;;;10.88;100.00
33404;BME280;19751;40.274;18.268;2024-01-15T03:01:47;100505.63;;;10.89;100.00
33404;BME280;19751;40.274;18.268;2024-01-15T03:04:12;100508.31;;;10.89;100.00
33404;BME280;19751;40.274;18.268;2024-01-15T03:06:38;100496.94;;;10.87;100.00
33404;BME280;19751;40.274;18.268;2024-01-15T03:09:03;100481.59;;;10.87;100.00
33404;BME280;19751;40.274;18.268;2024-01-15T03:11:29;100477.84;;;10.88;100.00
33404;BME280;19751;40.274;18.268;2024-01-15T03:13:54;100468.13;;;10.87;100.00
33404;BME280;19751;40.274;18.268;2024-01-15T03:16:20;100465.41;;;10.87;100.00
33404;BME280;19751;40.274;18.268;2024-01-15T03:18:46;100472.84;;;10.85;100.00
33404;BME280;19751;40.274;18.268;2024-01-15T03:21:11;100465.38;;;10.81;100.00
33404;BME280;19751;40.274;18.268;2024-01-15T03:23:37;100471.97;;;10.78;100.00
33404;BME280;19751;40.274;18.268;2024-01-15T03:26:03;100466.59;;;10.78;100.00
33404;BME280;19751;40.274;18.268;2024-01-15T03:28:28;100465.56;;;10.79;100.00
33404;BME280;19751;40.274;18.268;2024-01-15T03:30:55;100462.88;;;10.79;100.00
33404;BME280;19751;40.274;18.268;2024-01-15T03:33:21;100457.28;;;10.81;100.00
33404;BME280;19751;40.274;18.268;2024-01-15T03:35:46;100456.47;;;10.80;100.00
33404;BME280;19751;40.274;18.268;2024-01-15T03:38:12;100451.91;;;10.81;100.00
33404;BME280;19751;40.274;18.268;2024-01-15T03:40:37;100444.66;;;10.81;100.00
33404;BME280;19751;40.274;18.268;2024-01-15T03:43:03;100437.59;;;10.80;100.00
33404;BME280;19751;40.274;18.268;2024-01-15T03:45:29;100432.22;;;10.80;100.00
33404;BME280;19751;40.274;18.268;2024-01-15T03:47:54;100423.91;;;10.82;100.00
33404;BME280;19751;40.274;18.268;2024-01-15T03:50:20;100413.13;;;10.82;100.00
33404;BME280;19751;40.274;18.268;2024-01-15T03:52:45;100417.94;;;10.86;100.00
33404;BME280;19751;40.274;18.268;2024-01-15T03:55:11;100421.47;;;10.87;100.00
33404;BME280;19751;40.274;18.268;2024-01-15T03:57:36;100415.88;;;10.88;100.00
33404;BME280;19751;40.274;18.268;2024-01-15T04:00:02;100407.78;;;10.88;100.00
33404;BME280;19751;40.274;18.268;2024-01-15T04:02:28;100405.09;;;10.88;100.00
33404;BME280;19751;40.274;18.268;2024-01-15T04:04:54;100402.41;;;10.88;100.00
33404;BME280;19751;40.274;18.268;2024-01-15T04:07:19;100400.34;;;10.90;100.00
33404;BME280;19751;40.274;18.268;2024-01-15T04:09:45;100394.13;;;10.90;100.00
33404;BME280;19751;40.274;18.268;2024-01-15T04:12:10;100385.84;;;10.91;100.00
33404;BME280;19751;40.274;18.268;2024-01-15T04:14:36;100380.47;;;10.91;100.00
33404;BME280;19751;40.274;18.268;2024-01-15T04:17:01;100380.91;;;10.95;100.00
33404;BME280;19751;40.274;18.268;2024-01-15T04:19:27;100384.41;;;10.95;100.00
33404;BME280;19751;40.274;18.268;2024-01-15T04:21:52;100387.13;;;10.95;100.00
33404;BME280;19751;40.274;18.268;2024-01-15T04:24:18;100391.06;;;11.00;100.00
33404;BME280;19751;40.274;18.268;2024-01-15T04:26:44;100392.72;;;11.01;100.00
33404;BME280;19751;40.274;18.268;2024-01-15T04:29:09;100397.72;;;11.04;100.00
33404;BME280;19751;40.274;18.268;2024-01-15T04:31:35;100395.66;;;11.06;100.00
33404;BME280;19751;40.274;18.268;2024-01-15T04:34:00;100402.91;;;11.05;100.00
33404;BME280;19751;40.274;18.268;2024-01-15T04:36:25;100396.69;;;11.05;100.00
33404;BME280;19751;40.274;18.268;2024-01-15T04:38:51;100402.06;;;11.05;100.00
33404;BME280;19751;40.274;18.268;2024-01-15T04:41:16;100408.28;;;11.05;100.00
33404;BME280;19751;40.274;18.268;2024-01-15T04:43:42;100397.50;;;11.05;100.00
33404;BME280;19751;40.274;18.268;2024-01-15T04:46:08;100394.19;;;11.03;100.00
33404;BME280;19751;40.274;18.268;2024-01-15T04:48:33;100385.06;;;11.04;100.00
33404;BME280;19751;40.274;18.268;2024-01-15T04:50:59;100371.38;;;11.06;100.00
33404;BME280;19751;40.274;18.268;2024-01-15T04:53:25;100377.41;;;11.08;100.00
33404;BME280;19751;40.274;18.268;2024-01-15T04:55:50;100373.91;;;11.07;100.00
33404;BME280;19751;40.274;18.268;2024-01-15T04:58:16;100374.72;;;11.08;100.00
33404;BME280;19751;40.274;18.268;2024-01-15T05:00:41;100371.00;;;11.09;100.00
33404;BME280;19751;40.274;18.268;2024-01-15T05:03:07;100358.56;;;11.08;100.00
33404;BME280;19751;40.274;18.268;2024-01-15T05:05:32;100355.66;;;11.09;100.00
33404;BME280;19751;40.274;18.268;2024-01-15T05:07:58;100358.13;;;11.11;100.00
33404;BME280;19751;40.274;18.268;2024-01-15T05:10:23;100357.31;;;11.10;100.00
33404;BME280;19751;40.274;18.268;2024-01-15T05:12:49;100356.25;;;11.11;100.00
33404;BME280;19751;40.274;18.268;2024-01-15T05:15:14;100354.44;;;11.12;100.00
33404;BME280;19751;40.274;18.268;2024-01-15T05:17:40;100355.03;;;11.14;100.00
33404;BME280;19751;40.274;18.268;2024-01-15T05:20:06;100347.78;;;11.14;100.00
33404;BME280;19751;40.274;18.268;2024-01-15T05:22:32;100346.94;;;11.14;100.00
33404;BME280;19751;40.274;18.268;2024-01-15T05:24:58;100354.00;;;11.15;100.00
33404;BME280;19751;40.274;18.268;2024-01-15T05:27:23;100352.78;;;11.17;100.00
33404;BME280;19751;40.274;18.268;2024-01-15T05:29:49;100350.91;;;11.18;100.00
33404;BME280;19751;40.274;18.268;2024-01-15T05:32:14;100351.72;;;11.18;100.00
33404;BME280;19751;40.274;18.268;2024-01-15T05:34:40;100351.13;;;11.16;100.00
33404;BME280;19751;40.274;18.268;2024-01-15T05:37:05;100351.53;;;11.20;100.00
33404;BME280;19751;40.274;18.268;2024-01-15T05:39:31;100342.41;;;11.21;100.00
33404;BME280;19751;40.274;18.268;2024-01-15T05:41:57;100342.41;;;11.21;100.00
33404;BME280;19751;40.274;18.268;2024-01-15T05:44:23;100341.38;;;11.22;100.00
33404;BME280;19751;40.274;18.268;2024-01-15T05:46:48;100334.13;;;11.23;100.00
33404;BME280;19751;40.274;18.268;2024-01-15T05:49:14;100333.28;;;11.22;100.00
33404;BME280;19751;40.274;18.268;2024-01-15T05:51:39;100327.50;;;11.25;100.00
33404;BME280;19751;40.274;18.268;2024-01-15T05:54:05;100324.41;;;11.28;100.00
33404;BME280;19751;40.274;18.268;2024-01-15T05:56:31;100322.31;;;11.30;100.00
33404;BME280;19751;40.274;18.268;2024-01-15T05:58:56;100317.75;;;11.31;100.00
33404;BME280;19751;40.274;18.268;2024-01-15T06:01:22;100321.91;;;11.33;100.00
33404;BME280;19751;40.274;18.268;2024-01-15T06:03:47;100306.34;;;11.35;100.00
33404;BME280;19751;40.274;18.268;2024-01-15T06:06:13;100314.44;;;11.35;100.00
33404;BME280;19751;40.274;18.268;2024-01-15T06:08:38;100313.44;;;11.36;100.00
33404;BME280;19751;40.274;18.268;2024-01-15T06:11:04;100309.25;;;11.34;100.00
33404;BME280;19751;40.274;18.268;2024-01-15T06:13:30;100305.34;;;11.36;100.00
33404;BME280;19751;40.274;18.268;2024-01-15T06:15:55;100313.44;;;11.36;100.00
33404;BME280;19751;40.274;18.268;2024-01-15T06:18:21;100305.53;;;11.35;100.00
33404;BME280;19751;40.274;18.268;2024-01-15T06:20:46;100296.00;;;11.32;100.00
33404;BME280;19751;40.274;18.268;2024-01-15T06:23:12;100294.94;;;11.33;100.00
33404;BME280;19751;40.274;18.268;2024-01-15T06:25:37;100297.66;;;11.33;100.00
33404;BME280;19751;40.274;18.268;2024-01-15T06:28:03;100301.16;;;11.34;100.00
33404;BME280;19751;40.274;18.268;2024-01-15T06:30:30;100296.81;;;11.33;100.00
33404;BME280;19751;40.274;18.268;2024-01-15T06:32:55;100295.78;;;11.34;100.00
33404;BME280;19751;40.274;18.268;2024-01-15T06:35:21;100285.81;;;11.34;100.00
33404;BME280;19751;40.274;18.268;2024-01-15T06:37:46;100285.59;;;11.36;100.00
33404;BME280;19751;40.274;18.268;2024-01-15T06:40:12;100290.59;;;11.39;100.00
33404;BME280;19751;40.274;18.268;2024-01-15T06:42:37;100285.00;;;11.40;100.00
33404;BME280;19751;40.274;18.268;2024-01-15T06:45:03;100280.44;;;11.41;100.00
33404;BME280;19751;40.274;18.268;2024-01-15T06:47:29;100292.06;;;11.41;100.00
33404;BME280;19751;40.274;18.268;2024-01-15T06:49:54;100282.94;;;11.42;100.00
33404;BME280;19751;40.274;18.268;2024-01-15T06:52:20;100281.88;;;11.43;100.00
33404;BME280;19751;40.274;18.268;2024-01-15T06:54:45;100281.47;;;11.47;100.00
33404;BME280;19751;40.274;18.268;2024-01-15T06:57:11;100278.56;;;11.48;100.00
33404;BME280;19751;40.274;18.268;2024-01-15T06:59:36;100280.25;;;11.49;100.00
33404;BME280;19751;40.274;18.268;2024-01-15T07:02:02;100278.38;;;11.50;100.00
33404;BME280;19751;40.274;18.268;2024-01-15T07:04:28;100280.84;;;11.51;100.00
33404;BME280;19751;40.274;18.268;2024-01-15T07:06:53;100278.97;;;11.52;100.00
33404;BME280;19751;40.274;18.268;2024-01-15T07:09:18;100285.63;;;11.56;100.00
33404;BME280;19751;40.274;18.268;2024-01-15T07:11:45;100273.59;;;11.58;100.00
33404;BME280;19751;40.274;18.268;2024-01-15T07:14:12;100280.03;;;11.57;100.00
33404;BME280;19751;40.274;18.268;2024-01-15T07:16:37;100269.88;;;11.59;100.00
33404;BME280;19751;40.274;18.268;2024-01-15T07:19:03;100267.16;;;11.59;100.00
33404;BME280;19751;40.274;18.268;2024-01-15T07:21:28;100263.41;;;11.60;100.00
33404;BME280;19751;40.274;18.268;2024-01-15T07:23:55;100263.84;;;11.64;100.00
33404;BME280;19751;40.274;18.268;2024-01-15T07:26:21;100262.38;;;11.68;100.00
33404;BME280;19751;40.274;18.268;2024-01-15T07:28:46;100261.97;;;11.71;100.00
33404;BME280;19751;40.274;18.268;2024-01-15T07:31:12;100263.22;;;11.75;100.00
33404;BME280;19751;40.274;18.268;2024-01-15T07:33:37;100263.63;;;11.79;100.00
33404;BME280;19751;40.274;18.268;2024-01-15T07:36:03;100260.50;;;11.82;100.00
33404;BME280;19751;40.274;18.268;2024-01-15T07:38:29;100252.84;;;11.85;100.00
33404;BME280;19751;40.274;18.268;2024-01-15T07:40:54;100262.19;;;11.89;100.00
33404;BME280;19751;40.274;18.268;2024-01-15T07:43:20;100252.03;;;11.91;100.00
33404;BME280;19751;40.274;18.268;2024-01-15T07:45:46;100250.16;;;11.92;100.00
33404;BME280;19751;40.274;18.268;2024-01-15T07:48:11;100245.78;;;11.98;100.00
33404;BME280;19751;40.274;18.268;2024-01-15T07:50:37;100249.53;;;12.03;100.00
33404;BME280;19751;40.274;18.268;2024-01-15T07:53:03;100251.16;;;12.04;100.00
33404;BME280;19751;40.274;18.268;2024-01-15T07:55:29;100250.94;;;12.06;100.00
33404;BME280;19751;40.274;18.268;2024-01-15T07:57:54;100248.44;;;12.11;100.00
33404;BME280;19751;40.274;18.268;2024-01-15T08:00:24;100246.97;;;12.15;100.00
33404;BME280;19751;40.274;18.268;2024-01-15T08:02:49;100243.25;;;12.16;100.00
33404;BME280;19751;40.274;18.268;2024-01-15T08:05:16;100240.34;;;12.17;100.00
33404;BME280;19751;40.274;18.268;2024-01-15T08:07:42;100245.50;;;12.19;100.00
33404;BME280;19751;40.274;18.268;2024-01-15T08:10:07;100237.81;;;12.23;100.00
33404;BME280;19751;40.274;18.268;2024-01-15T08:12:33;100245.72;;;12.24;100.00
33404;BME280;19751;40.274;18.268;2024-01-15T08:14:58;100240.09;;;12.26;100.00
33404;BME280;19751;40.274;18.268;2024-01-15T08:17:24;100230.75;;;12.28;100.00
33404;BME280;19751;40.274;18.268;2024-01-15T08:19:54;100229.28;;;12.32;100.00
33404;BME280;19751;40.274;18.268;2024-01-15T08:22:20;100225.31;;;12.35;100.00
33404;BME280;19751;40.274;18.268;2024-01-15T08:24:45;100210.78;;;12.36;100.00
33404;BME280;19751;40.274;18.268;2024-01-15T08:27:11;100218.25;;;12.40;100.00
33404;BME280;19751;40.274;18.268;2024-01-15T08:29:36;100226.72;;;12.44;100.00
33404;BME280;19751;40.274;18.268;2024-01-15T08:32:02;100219.03;;;12.48;100.00
33404;BME280;19751;40.274;18.268;2024-01-15T08:34:28;100218.19;;;12.54;100.00
33404;BME280;19751;40.274;18.268;2024-01-15T08:36:53;100213.78;;;12.59;100.00
33404;BME280;19751;40.274;18.268;2024-01-15T08:39:19;100225.00;;;12.63;100.00
33404;BME280;19751;40.274;18.268;2024-01-15T08:41:45;100214.19;;;12.63;100.00
33404;BME280;19751;40.274;18.268;2024-01-15T08:44:12;100221.88;;;12.66;100.00
33404;BME280;19751;40.274;18.268;2024-01-15T08:46:37;100214.38;;;12.68;100.00
33404;BME280;19751;40.274;18.268;2024-01-15T08:49:03;100215.59;;;12.72;100.00
33404;BME280;19751;40.274;18.268;2024-01-15T08:51:28;100224.72;;;12.78;100.00
33404;BME280;19751;40.274;18.268;2024-01-15T08:53:56;100209.50;;;12.83;100.00
33404;BME280;19751;40.274;18.268;2024-01-15T08:56:21;100209.09;;;12.86;100.00
33404;BME280;19751;40.274;18.268;2024-01-15T08:58:47;100208.19;;;12.92;100.00
33404;BME280;19751;40.274;18.268;2024-01-15T09:01:12;100205.66;;;12.98;100.00
33404;BME280;19751;40.274;18.268;2024-01-15T09:03:38;100202.53;;;13.01;100.00
33404;BME280;19751;40.274;18.268;2024-01-15T09:06:03;100212.91;;;13.04;100.00
33404;BME280;19751;40.274;18.268;2024-01-15T09:08:29;100208.72;;;13.08;100.00
33404;BME280;19751;40.274;18.268;2024-01-15T09:10:54;100212.03;;;13.10;100.00
33404;BME280;19751;40.274;18.268;2024-01-15T09:13:20;100201.59;;;13.13;100.00
33404;BME280;19751;40.274;18.268;2024-01-15T09:15:45;100197.66;;;13.16;100.00
33404;BME280;19751;40.274;18.268;2024-01-15T09:18:11;100197.22;;;13.19;100.00
33404;BME280;19751;40.274;18.268;2024-01-15T09:20:36;100193.06;;;13.23;100.00
33404;BME280;19751;40.274;18.268;2024-01-15T09:23:03;100196.34;;;13.25;100.00
33404;BME280;19751;40.274;18.268;2024-01-15T09:25:29;100187.81;;;13.28;100.00
33404;BME280;19751;40.274;18.268;2024-01-15T09:27:54;100186.31;;;13.32;100.00
33404;BME280;19751;40.274;18.268;2024-01-15T09:30:20;100181.28;;;13.36;100.00
33404;BME280;19751;40.274;18.268;2024-01-15T09:32:46;100176.47;;;13.38;100.00
33404;BME280;19751;40.274;18.268;2024-01-15T09:35:11;100179.56;;;13.41;100.00
33404;BME280;19751;40.274;18.268;2024-01-15T09:37:36;100175.81;;;13.42;100.00
33404;BME280;19751;40.274;18.268;2024-01-15T09:40:04;100176.44;;;13.45;100.00
33404;BME280;19751;40.274;18.268;2024-01-15T09:42:33;100160.59;;;13.48;100.00
33404;BME280;19751;40.274;18.268;2024-01-15T09:44:59;100151.81;;;13.53;100.00
33404;BME280;19751;40.274;18.268;2024-01-15T09:47:24;100143.44;;;13.54;100.00
33404;BME280;19751;40.274;18.268;2024-01-15T09:49:50;100143.97;;;13.63;100.00
33404;BME280;19751;40.274;18.268;2024-01-15T09:52:17;100139.56;;;13.68;100.00
33404;BME280;19751;40.274;18.268;2024-01-15T09:54:45;100132.88;;;13.71;100.00
33404;BME280;19751;40.274;18.268;2024-01-15T09:57:11;100133.38;;;13.80;100.00
33404;BME280;19751;40.274;18.268;2024-01-15T09:59:37;100126.47;;;13.84;100.00
33404;BME280;19751;40.274;18.268;2024-01-15T10:02:04;100116.84;;;13.88;100.00
33404;BME280;19751;40.274;18.268;2024-01-15T10:04:31;100114.38;;;13.86;100.00
33404;BME280;19751;40.274;18.268;2024-01-15T10:06:57;100114.59;;;13.85;100.00
33404;BME280;19751;40.274;18.268;2024-01-15T10:09:25;100107.91;;;13.87;100.00
33404;BME280;19751;40.274;18.268;2024-01-15T10:11:54;100095.44;;;13.86;100.00
33404;BME280;19751;40.274;18.268;2024-01-15T10:14:19;100077.53;;;13.85;100.00
33404;BME280;19751;40.274;18.268;2024-01-15T10:16:44;100085.66;;;13.85;100.00
33404;BME280;19751;40.274;18.268;2024-01-15T10:19:10;100083.41;;;13.82;100.00
33404;BME280;19751;40.274;18.268;2024-01-15T10:21:36;100066.91;;;13.84;100.00
33404;BME280;19751;40.274;18.268;2024-01-15T10:24:03;100068.81;;;13.83;100.00
33404;BME280;19751;40.274;18.268;2024-01-15T10:26:29;100056.09;;;13.84;100.00
33404;BME280;19751;40.274;18.268;2024-01-15T10:28:55;100054.44;;;13.83;100.00
33404;BME280;19751;40.274;18.268;2024-01-15T10:31:21;100047.16;;;13.83;100.00
33404;BME280;19751;40.274;18.268;2024-01-15T10:33:49;100046.47;;;13.88;100.00
33404;BME280;19751;40.274;18.268;2024-01-15T10:36:16;100043.91;;;13.93;100.00
33404;BME280;19751;40.274;18.268;2024-01-15T10:38:45;100037.94;;;14.03;100.00
33404;BME280;19751;40.274;18.268;2024-01-15T10:41:11;100034.31;;;14.09;100.00
33404;BME280;19751;40.274;18.268;2024-01-15T10:43:37;100035.06;;;14.16;100.00
33404;BME280;19751;40.274;18.268;2024-01-15T10:46:03;100033.91;;;14.24;100.00
33404;BME280;19751;40.274;18.268;2024-01-15T10:48:29;100025.34;;;14.38;100.00
33404;BME280;19751;40.274;18.268;2024-01-15T10:50:56;100023.88;;;14.54;100.00
33404;BME280;19751;40.274;18.268;2024-01-15T10:53:23;100024.38;;;14.63;100.00
33404;BME280;19751;40.274;18.268;2024-01-15T10:55:50;100011.78;;;14.69;100.00
33404;BME280;19751;40.274;18.268;2024-01-15T10:58:17;100011.28;;;14.72;100.00
33404;BME280;19751;40.274;18.268;2024-01-15T11:00:44;100008.56;;;14.72;100.00
33404;BME280;19751;40.274;18.268;2024-01-15T11:03:10;100003.97;;;14.72;100.00
33404;BME280;19751;40.274;18.268;2024-01-15T11:05:41;100005.41;;;14.75;100.00
33404;BME280;19751;40.274;18.268;2024-01-15T11:08:06;99995.84;;;14.72;100.00
33404;BME280;19751;40.274;18.268;2024-01-15T11:10:46;100013.44;;;14.70;100.00
33404;BME280;19751;40.274;18.268;2024-01-15T11:13:22;100009.53;;;14.65;100.00
33404;BME280;19751;40.274;18.268;2024-01-15T11:16:05;100007.06;;;14.64;100.00
33404;BME280;19751;40.274;18.268;2024-01-15T11:18:41;100008.81;;;14.58;100.00
33404;BME280;19751;40.274;18.268;2024-01-15T11:26:35;99981.00;;;14.63;100.00
33404;BME280;19751;40.274;18.268;2024-01-15T11:29:07;99980.53;;;14.66;100.00
33404;BME280;19751;40.274;18.268;2024-01-15T11:34:10;99964.50;;;14.76;100.00
33404;BME280;19751;40.274;18.268;2024-01-15T11:39:40;99976.75;;;14.79;100.00
33404;BME280;19751;40.274;18.268;2024-01-15T11:42:08;99979.84;;;14.82;100.00
33404;BME280;19751;40.274;18.268;2024-01-15T11:44:37;99978.78;;;14.83;100.00
33404;BME280;19751;40.274;18.268;2024-01-15T11:47:08;99979.22;;;14.80;100.00
33404;BME280;19751;40.274;18.268;2024-01-15T11:52:20;99966.63;;;14.74;100.00
33404;BME280;19751;40.274;18.268;2024-01-15T11:55:01;99964.28;;;14.78;100.00
33404;BME280;19751;40.274;18.268;2024-01-15T11:57:44;99960.50;;;14.79;100.00
33404;BME280;19751;40.274;18.268;2024-01-15T12:00:12;99965.47;;;14.82;100.00
33404;BME280;19751;40.274;18.268;2024-01-15T12:02:43;99957.69;;;14.85;100.00
33404;BME280;19751;40.274;18.268;2024-01-15T12:05:10;99956.38;;;14.88;100.00
33404;BME280;19751;40.274;18.268;2024-01-15T12:07:41;99955.91;;;14.91;100.00
33404;BME280;19751;40.274;18.268;2024-01-15T12:12:53;99935.13;;;14.97;100.00
33404;BME280;19751;40.274;18.268;2024-01-15T12:15:22;99923.25;;;14.98;100.00
33404;BME280;19751;40.274;18.268;2024-01-15T12:17:48;99921.81;;;14.95;100.00
33404;BME280;19751;40.274;18.268;2024-01-15T12:20:14;99908.53;;;14.94;100.00
33404;BME280;19751;40.274;18.268;2024-01-15T12:22:41;99916.06;;;14.91;100.00
33404;BME280;19751;40.274;18.268;2024-01-15T12:25:07;99899.69;;;14.86;100.00
33404;BME280;19751;40.274;18.268;2024-01-15T12:27:32;99901.22;;;14.82;100.00
33404;BME280;19751;40.274;18.268;2024-01-15T12:29:58;99888.13;;;14.79;100.00
33404;BME280;19751;40.274;18.268;2024-01-15T12:32:24;99887.19;;;14.74;100.00
33404;BME280;19751;40.274;18.268;2024-01-15T12:34:51;99884.97;;;14.71;100.00
33404;BME280;19751;40.274;18.268;2024-01-15T12:37:19;99892.16;;;14.65;100.00
33404;BME280;19751;40.274;18.268;2024-01-15T12:39:46;99892.88;;;14.60;100.00
33404;BME280;19751;40.274;18.268;2024-01-15T12:42:11;99892.53;;;14.57;100.00